sensor_id;sensor_type;location;lat;lon;timestamp;P1;durP1;ratioP1;P2;durP2;ratioP2
62588;SDS011;58504;48.770;9.148;2023-07-20T00:01:33;2.03;;;1.50;;
62588;SDS011;58504;48.770;9.148;2023-07-20T00:03:59;1.40;;;1.30;;
62588;SDS011;58504;48.770;9.148;2023-07-20T00:06:26;1.50;;;1.40;;
62588;SDS011;58504;48.770;9.148;2023-07-20T00:08:53;1.95;;;1.27;;
62588;SDS011;58504;48.770;9.148;2023-07-20T00:11:21;1.15;;;1.15;;
62588;SDS011;58504;48.770;9.148;2023-07-20T00:13:47;1.40;;;1.30;;
62588;SDS011;58504;48.770;9.148;2023-07-20T00:16:14;1.45;;;1.35;;
62588;SDS011;58504;48.770;9.148;2023-07-20T00:18:42;1.40;;;1.30;;
62588;SDS011;58504;48.770;9.148;2023-07-20T00:21:09;1.38;;;1.35;;
62588;SDS011;58504;48.770;9.148;2023-07-20T00:23:37;1.17;;;1.17;;
62588;SDS011;58504;48.770;9.148;2023-07-20T00:26:04;3.65;;;1.45;;
62588;SDS011;58504;48.770;9.148;2023-07-20T00:28:31;1.70;;;1.60;;
62588;SDS011;58504;48.770;9.148;2023-07-20T00:30:58;1.05;;;1.05;;
62588;SDS011;58504;48.770;9.148;2023-07-20T00:33:25;3.80;;;1.50;;
62588;SDS011;58504;48.770;9.148;2023-07-20T00:35:53;1.33;;;1.23;;
62588;SDS011;58504;48.770;9.148;2023-07-20T00:38:20;1.08;;;1.08;;
62588;SDS011;58504;48.770;9.148;2023-07-20T00:40:47;1.38;;;1.23;;
62588;SDS011;58504;48.770;9.148;2023-07-20T00:43:14;1.98;;;1.40;;
62588;SDS011;58504;48.770;9.148;2023-07-20T00:45:41;1.40;;;1.30;;
62588;SDS011;58504;48.770;9.148;2023-07-20T00:48:09;1.42;;;1.33;;
62588;SDS011;58504;48.770;9.148;2023-07-20T00:50:37;3.25;;;1.35;;
62588;SDS011;58504;48.770;9.148;2023-07-20T00:53:06;1.05;;;1.00;;
62588;SDS011;58504;48.770;9.148;2023-07-20T00:55:34;2.58;;;1.20;;
62588;SDS011;58504;48.770;9.148;2023-07-20T00:58:02;1.23;;;1.20;;
62588;SDS011;58504;48.770;9.148;2023-07-20T01:00:29;1.17;;;1.17;;
62588;SDS011;58504;48.770;9.148;2023-07-20T01:02:56;1.15;;;1.15;;
62588;SDS011;58504;48.770;9.148;2023-07-20T01:05:23;1.17;;;1.10;;
62588;SDS011;58504;48.770;9.148;2023-07-20T01:07:59;1.35;;;1.25;;
62588;SDS011;58504;48.770;9.148;2023-07-20T01:10:31;0.82;;;0.80;;
62588;SDS011;58504;48.770;9.148;2023-07-20T01:13:06;1.23;;;1.02;;
62588;SDS011;58504;48.770;9.148;2023-07-20T01:15:35;1.40;;;1.20;;
62588;SDS011;58504;48.770;9.148;2023-07-20T01:18:02;1.15;;;1.15;;
62588;SDS011;58504;48.770;9.148;2023-07-20T01:20:30;1.45;;;1.20;;
62588;SDS011;58504;48.770;9.148;2023-07-20T01:26:15;2.42;;;1.15;;
62588;SDS011;58504;48.770;9.148;2023-07-20T01:29:06;1.52;;;1.40;;
62588;SDS011;58504;48.770;9.148;2023-07-20T01:31:44;1.23;;;1.13;;
62588;SDS011;58504;48.770;9.148;2023-07-20T01:34:13;1.38;;;1.27;;
62588;SDS011;58504;48.770;9.148;2023-07-20T01:36:43;1.27;;;1.20;;
62588;SDS011;58504;48.770;9.148;2023-07-20T01:39:11;1.10;;;1.08;;
62588;SDS011;58504;48.770;9.148;2023-07-20T01:41:39;1.27;;;1.20;;
62588;SDS011;58504;48.770;9.148;2023-07-20T01:44:05;1.33;;;1.23;;
62588;SDS011;58504;48.770;9.148;2023-07-20T01:46:32;1.25;;;1.10;;
62588;SDS011;58504;48.770;9.148;2023-07-20T01:49:00;1.42;;;1.20;;
62588;SDS011;58504;48.770;9.148;2023-07-20T01:51:27;1.13;;;1.10;;
62588;SDS011;58504;48.770;9.148;2023-07-20T01:53:54;1.30;;;1.20;;
62588;SDS011;58504;48.770;9.148;2023-07-20T01:56:20;1.30;;;1.20;;
62588;SDS011;58504;48.770;9.148;2023-07-20T01:58:47;1.20;;;1.10;;
62588;SDS011;58504;48.770;9.148;2023-07-20T02:01:14;1.38;;;1.20;;
62588;SDS011;58504;48.770;9.148;2023-07-20T02:03:41;0.88;;;0.82;;
62588;SDS011;58504;48.770;9.148;2023-07-20T02:06:09;1.13;;;1.13;;
62588;SDS011;58504;48.770;9.148;2023-07-20T02:08:36;1.38;;;1.27;;
62588;SDS011;58504;48.770;9.148;2023-07-20T02:11:02;0.98;;;0.98;;
62588;SDS011;58504;48.770;9.148;2023-07-20T02:13:30;1.20;;;1.10;;
62588;SDS011;58504;48.770;9.148;2023-07-20T02:15:56;1.00;;;1.00;;
62588;SDS011;58504;48.770;9.148;2023-07-20T02:18:23;1.10;;;1.10;;
62588;SDS011;58504;48.770;9.148;2023-07-20T02:20:52;1.25;;;1.25;;
62588;SDS011;58504;48.770;9.148;2023-07-20T02:23:20;1.05;;;1.00;;
62588;SDS011;58504;48.770;9.148;2023-07-20T02:25:47;1.48;;;1.38;;
62588;SDS011;58504;48.770;9.148;2023-07-20T02:28:15;1.42;;;0.95;;
62588;SDS011;58504;48.770;9.148;2023-07-20T02:30:42;1.10;;;1.10;;
62588;SDS011;58504;48.770;9.148;2023-07-20T02:33:08;1.45;;;1.35;;
62588;SDS011;58504;48.770;9.148;2023-07-20T02:35:35;0.80;;;0.80;;
62588;SDS011;58504;48.770;9.148;2023-07-20T02:38:02;1.00;;;1.00;;
62588;SDS011;58504;48.770;9.148;2023-07-20T02:40:30;0.93;;;0.93;;
62588;SDS011;58504;48.770;9.148;2023-07-20T02:42:57;1.38;;;1.08;;
62588;SDS011;58504;48.770;9.148;2023-07-20T02:45:24;0.90;;;0.90;;
62588;SDS011;58504;48.770;9.148;2023-07-20T02:47:50;1.02;;;1.02;;
62588;SDS011;58504;48.770;9.148;2023-07-20T02:50:17;1.42;;;1.33;;
62588;SDS011;58504;48.770;9.148;2023-07-20T02:52:44;1.10;;;1.10;;
62588;SDS011;58504;48.770;9.148;2023-07-20T02:55:11;0.95;;;0.95;;
62588;SDS011;58504;48.770;9.148;2023-07-20T02:57:39;0.98;;;0.98;;
62588;SDS011;58504;48.770;9.148;2023-07-20T03:00:06;1.10;;;1.00;;
62588;SDS011;58504;48.770;9.148;2023-07-20T03:02:34;1.10;;;1.10;;
62588;SDS011;58504;48.770;9.148;2023-07-20T03:05:01;1.10;;;1.10;;
62588;SDS011;58504;48.770;9.148;2023-07-20T03:07:30;1.10;;;1.10;;
62588;SDS011;58504;48.770;9.148;2023-07-20T03:09:57;1.25;;;1.10;;
62588;SDS011;58504;48.770;9.148;2023-07-20T03:12:24;1.08;;;1.00;;
62588;SDS011;58504;48.770;9.148;2023-07-20T03:14:52;1.30;;;1.20;;
62588;SDS011;58504;48.770;9.148;2023-07-20T03:17:19;1.33;;;1.23;;
62588;SDS011;58504;48.770;9.148;2023-07-20T03:19:46;1.17;;;1.17;;
62588;SDS011;58504;48.770;9.148;2023-07-20T03:22:13;0.90;;;0.90;;
62588;SDS011;58504;48.770;9.148;2023-07-20T03:24:39;1.30;;;1.20;;
62588;SDS011;58504;48.770;9.148;2023-07-20T03:27:06;1.30;;;1.20;;
62588;SDS011;58504;48.770;9.148;2023-07-20T03:29:33;1.95;;;1.13;;
62588;SDS011;58504;48.770;9.148;2023-07-20T03:32:01;1.00;;;1.00;;
62588;SDS011;58504;48.770;9.148;2023-07-20T03:34:28;1.00;;;1.00;;
62588;SDS011;58504;48.770;9.148;2023-07-20T03:36:55;0.85;;;0.82;;
62588;SDS011;58504;48.770;9.148;2023-07-20T03:39:22;1.05;;;0.90;;
62588;SDS011;58504;48.770;9.148;2023-07-20T03:41:48;0.88;;;0.88;;
62588;SDS011;58504;48.770;9.148;2023-07-20T03:44:15;1.10;;;1.10;;
62588;SDS011;58504;48.770;9.148;2023-07-20T03:46:42;1.00;;;1.00;;
62588;SDS011;58504;48.770;9.148;2023-07-20T03:49:10;1.40;;;1.33;;
62588;SDS011;58504;48.770;9.148;2023-07-20T03:51:37;1.05;;;1.05;;
62588;SDS011;58504;48.770;9.148;2023-07-20T03:54:04;1.05;;;1.05;;
62588;SDS011;58504;48.770;9.148;2023-07-20T03:56:31;1.38;;;1.23;;
62588;SDS011;58504;48.770;9.148;2023-07-20T03:59:00;1.00;;;1.00;;
62588;SDS011;58504;48.770;9.148;2023-07-20T04:01:27;0.82;;;0.82;;
62588;SDS011;58504;48.770;9.148;2023-07-20T04:03:53;1.25;;;1.13;;
62588;SDS011;58504;48.770;9.148;2023-07-20T04:06:22;1.30;;;1.20;;
62588;SDS011;58504;48.770;9.148;2023-07-20T04:08:48;1.00;;;1.00;;
62588;SDS011;58504;48.770;9.148;2023-07-20T04:11:15;0.80;;;0.80;;
62588;SDS011;58504;48.770;9.148;2023-07-20T04:13:42;1.20;;;1.20;;
62588;SDS011;58504;48.770;9.148;2023-07-20T04:16:09;1.02;;;0.98;;
62588;SDS011;58504;48.770;9.148;2023-07-20T04:18:35;0.95;;;0.95;;
62588;SDS011;58504;48.770;9.148;2023-07-20T04:21:02;0.93;;;0.90;;
62588;SDS011;58504;48.770;9.148;2023-07-20T04:23:30;1.08;;;1.08;;
62588;SDS011;58504;48.770;9.148;2023-07-20T04:25:57;1.13;;;1.13;;
62588;SDS011;58504;48.770;9.148;2023-07-20T04:28:23;1.00;;;0.95;;
62588;SDS011;58504;48.770;9.148;2023-07-20T04:30:50;1.23;;;1.13;;
62588;SDS011;58504;48.770;9.148;2023-07-20T04:33:17;1.00;;;1.00;;
62588;SDS011;58504;48.770;9.148;2023-07-20T04:35:45;1.10;;;0.88;;
62588;SDS011;58504;48.770;9.148;2023-07-20T04:38:13;1.08;;;1.08;;
62588;SDS011;58504;48.770;9.148;2023-07-20T04:40:42;0.77;;;0.77;;
62588;SDS011;58504;48.770;9.148;2023-07-20T04:43:08;0.80;;;0.80;;
62588;SDS011;58504;48.770;9.148;2023-07-20T04:45:35;2.03;;;1.35;;
62588;SDS011;58504;48.770;9.148;2023-07-20T04:48:02;0.88;;;0.88;;
62588;SDS011;58504;48.770;9.148;2023-07-20T04:50:29;1.05;;;0.95;;
62588;SDS011;58504;48.770;9.148;2023-07-20T04:52:56;0.93;;;0.93;;
62588;SDS011;58504;48.770;9.148;2023-07-20T04:55:23;0.68;;;0.68;;
62588;SDS011;58504;48.770;9.148;2023-07-20T04:57:51;1.00;;;1.00;;
62588;SDS011;58504;48.770;9.148;2023-07-20T05:00:18;0.82;;;0.82;;
62588;SDS011;58504;48.770;9.148;2023-07-20T05:02:46;1.20;;;1.17;;
62588;SDS011;58504;48.770;9.148;2023-07-20T05:05:14;1.02;;;1.00;;
62588;SDS011;58504;48.770;9.148;2023-07-20T05:07:41;0.80;;;0.80;;
62588;SDS011;58504;48.770;9.148;2023-07-20T05:10:08;0.70;;;0.70;;
62588;SDS011;58504;48.770;9.148;2023-07-20T05:12:34;1.30;;;1.20;;
62588;SDS011;58504;48.770;9.148;2023-07-20T05:15:03;0.80;;;0.80;;
62588;SDS011;58504;48.770;9.148;2023-07-20T05:17:30;0.90;;;0.90;;
62588;SDS011;58504;48.770;9.148;2023-07-20T05:19:57;0.93;;;0.93;;
62588;SDS011;58504;48.770;9.148;2023-07-20T05:22:24;1.10;;;1.00;;
62588;SDS011;58504;48.770;9.148;2023-07-20T05:24:51;1.13;;;0.95;;
62588;SDS011;58504;48.770;9.148;2023-07-20T05:27:17;1.80;;;1.10;;
62588;SDS011;58504;48.770;9.148;2023-07-20T05:29:44;1.23;;;1.05;;
62588;SDS011;58504;48.770;9.148;2023-07-20T05:32:13;2.05;;;1.10;;
62588;SDS011;58504;48.770;9.148;2023-07-20T05:34:40;1.10;;;1.10;;
62588;SDS011;58504;48.770;9.148;2023-07-20T05:37:06;1.00;;;1.00;;
62588;SDS011;58504;48.770;9.148;2023-07-20T05:39:33;0.98;;;0.98;;
62588;SDS011;58504;48.770;9.148;2023-07-20T05:42:00;0.98;;;0.98;;
62588;SDS011;58504;48.770;9.148;2023-07-20T05:44:27;0.93;;;0.93;;
62588;SDS011;58504;48.770;9.148;2023-07-20T05:46:54;1.15;;;1.08;;
62588;SDS011;58504;48.770;9.148;2023-07-20T05:49:22;1.35;;;1.00;;
62588;SDS011;58504;48.770;9.148;2023-07-20T05:51:48;1.30;;;1.20;;
62588;SDS011;58504;48.770;9.148;2023-07-20T05:54:15;0.77;;;0.77;;
62588;SDS011;58504;48.770;9.148;2023-07-20T05:56:42;0.90;;;0.90;;
62588;SDS011;58504;48.770;9.148;2023-07-20T05:59:08;0.93;;;0.93;;
62588;SDS011;58504;48.770;9.148;2023-07-20T06:01:35;0.88;;;0.88;;
62588;SDS011;58504;48.770;9.148;2023-07-20T06:04:02;0.95;;;0.95;;
62588;SDS011;58504;48.770;9.148;2023-07-20T06:06:30;1.13;;;1.13;;
62588;SDS011;58504;48.770;9.148;2023-07-20T06:08:57;1.33;;;0.88;;
62588;SDS011;58504;48.770;9.148;2023-07-20T06:11:24;1.63;;;1.52;;
62588;SDS011;58504;48.770;9.148;2023-07-20T06:13:50;1.00;;;1.00;;
62588;SDS011;58504;48.770;9.148;2023-07-20T06:16:17;0.90;;;0.90;;
62588;SDS011;58504;48.770;9.148;2023-07-20T06:18:44;1.85;;;0.95;;
62588;SDS011;58504;48.770;9.148;2023-07-20T06:21:11;3.67;;;1.80;;
62588;SDS011;58504;48.770;9.148;2023-07-20T06:23:40;1.77;;;1.50;;
62588;SDS011;58504;48.770;9.148;2023-07-20T06:26:07;2.03;;;1.85;;
62588;SDS011;58504;48.770;9.148;2023-07-20T06:28:34;4.68;;;1.98;;
62588;SDS011;58504;48.770;9.148;2023-07-20T06:31:01;1.80;;;1.33;;
62588;SDS011;58504;48.770;9.148;2023-07-20T06:33:28;3.00;;;2.00;;
62588;SDS011;58504;48.770;9.148;2023-07-20T06:35:55;2.88;;;2.65;;
62588;SDS011;58504;48.770;9.148;2023-07-20T06:38:22;4.07;;;2.17;;
62588;SDS011;58504;48.770;9.148;2023-07-20T06:40:51;6.95;;;2.22;;
62588;SDS011;58504;48.770;9.148;2023-07-20T06:43:18;4.85;;;2.22;;
62588;SDS011;58504;48.770;9.148;2023-07-20T06:45:44;5.13;;;2.63;;
62588;SDS011;58504;48.770;9.148;2023-07-20T06:48:16;3.63;;;2.55;;
62588;SDS011;58504;48.770;9.148;2023-07-20T06:50:43;2.50;;;1.65;;
62588;SDS011;58504;48.770;9.148;2023-07-20T06:53:10;10.02;;;2.10;;
62588;SDS011;58504;48.770;9.148;2023-07-20T06:55:37;2.60;;;1.98;;
62588;SDS011;58504;48.770;9.148;2023-07-20T06:58:05;3.90;;;1.65;;
62588;SDS011;58504;48.770;9.148;2023-07-20T07:00:31;4.53;;;1.75;;
62588;SDS011;58504;48.770;9.148;2023-07-20T07:02:58;1.92;;;1.60;;
62588;SDS011;58504;48.770;9.148;2023-07-20T07:05:25;8.23;;;1.85;;
62588;SDS011;58504;48.770;9.148;2023-07-20T07:07:52;4.47;;;1.85;;
62588;SDS011;58504;48.770;9.148;2023-07-20T07:10:18;5.50;;;2.55;;
62588;SDS011;58504;48.770;9.148;2023-07-20T07:12:45;4.80;;;2.28;;
62588;SDS011;58504;48.770;9.148;2023-07-20T07:15:13;2.90;;;1.55;;
62588;SDS011;58504;48.770;9.148;2023-07-20T07:17:40;7.68;;;1.95;;
62588;SDS011;58504;48.770;9.148;2023-07-20T07:20:08;2.03;;;1.80;;
62588;SDS011;58504;48.770;9.148;2023-07-20T07:22:35;3.88;;;1.85;;
62588;SDS011;58504;48.770;9.148;2023-07-20T07:25:02;5.53;;;2.00;;
62588;SDS011;58504;48.770;9.148;2023-07-20T07:27:29;5.80;;;2.17;;
62588;SDS011;58504;48.770;9.148;2023-07-20T07:29:56;3.58;;;1.70;;
62588;SDS011;58504;48.770;9.148;2023-07-20T07:32:24;2.70;;;1.90;;
62588;SDS011;58504;48.770;9.148;2023-07-20T07:34:51;2.97;;;1.45;;
62588;SDS011;58504;48.770;9.148;2023-07-20T07:37:18;2.10;;;1.90;;
62588;SDS011;58504;48.770;9.148;2023-07-20T07:39:45;3.03;;;1.80;;
62588;SDS011;58504;48.770;9.148;2023-07-20T07:42:12;1.60;;;1.50;;
62588;SDS011;58504;48.770;9.148;2023-07-20T07:44:39;1.63;;;1.52;;
62588;SDS011;58504;48.770;9.148;2023-07-20T07:47:06;1.55;;;1.35;;
62588;SDS011;58504;48.770;9.148;2023-07-20T07:49:34;1.65;;;1.48;;
62588;SDS011;58504;48.770;9.148;2023-07-20T07:52:01;2.55;;;1.58;;
62588;SDS011;58504;48.770;9.148;2023-07-20T07:54:28;2.33;;;1.60;;
62588;SDS011;58504;48.770;9.148;2023-07-20T07:56:55;4.43;;;1.70;;
62588;SDS011;58504;48.770;9.148;2023-07-20T07:59:22;2.00;;;1.77;;
62588;SDS011;58504;48.770;9.148;2023-07-20T08:01:49;2.85;;;1.75;;
62588;SDS011;58504;48.770;9.148;2023-07-20T08:04:16;1.40;;;1.30;;
62588;SDS011;58504;48.770;9.148;2023-07-20T08:06:44;4.40;;;1.85;;
62588;SDS011;58504;48.770;9.148;2023-07-20T08:09:11;1.80;;;1.70;;
62588;SDS011;58504;48.770;9.148;2023-07-20T08:11:38;1.73;;;1.63;;
62588;SDS011;58504;48.770;9.148;2023-07-20T08:14:05;6.78;;;1.98;;
62588;SDS011;58504;48.770;9.148;2023-07-20T08:16:32;1.67;;;1.40;;
62588;SDS011;58504;48.770;9.148;2023-07-20T08:18:59;3.38;;;1.90;;
62588;SDS011;58504;48.770;9.148;2023-07-20T08:21:27;1.60;;;1.45;;
62588;SDS011;58504;48.770;9.148;2023-07-20T08:23:55;1.50;;;1.40;;
62588;SDS011;58504;48.770;9.148;2023-07-20T08:26:22;1.20;;;1.10;;
62588;SDS011;58504;48.770;9.148;2023-07-20T08:28:49;4.90;;;1.88;;
62588;SDS011;58504;48.770;9.148;2023-07-20T08:31:16;1.88;;;1.40;;
62588;SDS011;58504;48.770;9.148;2023-07-20T08:33:43;1.75;;;1.65;;
62588;SDS011;58504;48.770;9.148;2023-07-20T08:36:10;1.42;;;1.33;;
62588;SDS011;58504;48.770;9.148;2023-07-20T08:38:36;3.47;;;1.40;;
62588;SDS011;58504;48.770;9.148;2023-07-20T08:41:04;2.50;;;1.63;;
62588;SDS011;58504;48.770;9.148;2023-07-20T08:43:31;2.22;;;1.30;;
62588;SDS011;58504;48.770;9.148;2023-07-20T08:45:59;3.42;;;1.42;;
62588;SDS011;58504;48.770;9.148;2023-07-20T08:48:27;2.25;;;1.42;;
62588;SDS011;58504;48.770;9.148;2023-07-20T08:50:56;1.60;;;1.45;;
62588;SDS011;58504;48.770;9.148;2023-07-20T08:53:25;2.13;;;1.67;;
62588;SDS011;58504;48.770;9.148;2023-07-20T08:55:53;2.45;;;1.40;;
62588;SDS011;58504;48.770;9.148;2023-07-20T08:58:21;1.67;;;1.50;;
62588;SDS011;58504;48.770;9.148;2023-07-20T09:00:51;1.70;;;1.60;;
62588;SDS011;58504;48.770;9.148;2023-07-20T09:03:19;2.90;;;1.30;;
62588;SDS011;58504;48.770;9.148;2023-07-20T09:05:46;1.48;;;1.27;;
62588;SDS011;58504;48.770;9.148;2023-07-20T09:08:13;1.08;;;1.08;;
62588;SDS011;58504;48.770;9.148;2023-07-20T09:10:39;2.45;;;1.48;;
62588;SDS011;58504;48.770;9.148;2023-07-20T09:13:06;1.42;;;1.27;;
62588;SDS011;58504;48.770;9.148;2023-07-20T09:15:34;1.20;;;1.10;;
62588;SDS011;58504;48.770;9.148;2023-07-20T09:18:01;1.30;;;1.20;;
62588;SDS011;58504;48.770;9.148;2023-07-20T09:20:30;1.35;;;1.17;;
62588;SDS011;58504;48.770;9.148;2023-07-20T09:22:57;1.75;;;1.63;;
62588;SDS011;58504;48.770;9.148;2023-07-20T09:25:24;1.52;;;1.17;;
62588;SDS011;58504;48.770;9.148;2023-07-20T09:27:53;1.70;;;1.60;;
62588;SDS011;58504;48.770;9.148;2023-07-20T09:30:21;2.05;;;1.13;;
62588;SDS011;58504;48.770;9.148;2023-07-20T09:32:52;1.35;;;1.25;;
62588;SDS011;58504;48.770;9.148;2023-07-20T09:35:20;1.05;;;1.05;;
62588;SDS011;58504;48.770;9.148;2023-07-20T09:37:49;1.25;;;1.25;;
62588;SDS011;58504;48.770;9.148;2023-07-20T09:40:18;1.50;;;1.40;;
62588;SDS011;58504;48.770;9.148;2023-07-20T09:42:46;1.77;;;1.15;;
62588;SDS011;58504;48.770;9.148;2023-07-20T09:45:13;1.35;;;1.25;;
62588;SDS011;58504;48.770;9.148;2023-07-20T09:47:40;1.58;;;1.48;;
62588;SDS011;58504;48.770;9.148;2023-07-20T09:50:08;1.73;;;1.63;;
62588;SDS011;58504;48.770;9.148;2023-07-20T09:52:40;2.47;;;1.35;;
62588;SDS011;58504;48.770;9.148;2023-07-20T09:57:37;1.85;;;1.33;;
62588;SDS011;58504;48.770;9.148;2023-07-20T10:00:04;1.45;;;1.35;;
62588;SDS011;58504;48.770;9.148;2023-07-20T10:02:41;1.65;;;1.10;;
62588;SDS011;58504;48.770;9.148;2023-07-20T10:05:11;1.40;;;1.30;;
62588;SDS011;58504;48.770;9.148;2023-07-20T10:07:42;0.90;;;0.90;;
62588;SDS011;58504;48.770;9.148;2023-07-20T10:10:11;1.50;;;1.40;;
62588;SDS011;58504;48.770;9.148;2023-07-20T10:12:40;1.95;;;1.42;;
62588;SDS011;58504;48.770;9.148;2023-07-20T10:15:10;2.08;;;1.25;;
62588;SDS011;58504;48.770;9.148;2023-07-20T10:17:40;1.25;;;1.17;;
62588;SDS011;58504;48.770;9.148;2023-07-20T10:20:16;1.13;;;1.05;;
62588;SDS011;58504;48.770;9.148;2023-07-20T10:22:45;1.33;;;1.17;;
62588;SDS011;58504;48.770;9.148;2023-07-20T10:25:15;1.13;;;1.10;;
62588;SDS011;58504;48.770;9.148;2023-07-20T10:27:42;2.83;;;1.30;;
62588;SDS011;58504;48.770;9.148;2023-07-20T10:30:10;1.10;;;1.10;;
62588;SDS011;58504;48.770;9.148;2023-07-20T10:32:37;1.02;;;1.00;;
62588;SDS011;58504;48.770;9.148;2023-07-20T10:35:11;1.20;;;1.10;;
62588;SDS011;58504;48.770;9.148;2023-07-20T10:37:47;1.13;;;1.13;;
62588;SDS011;58504;48.770;9.148;2023-07-20T10:40:25;1.27;;;1.20;;
62588;SDS011;58504;48.770;9.148;2023-07-20T10:42:58;1.50;;;0.88;;
62588;SDS011;58504;48.770;9.148;2023-07-20T10:45:41;1.35;;;1.25;;
62588;SDS011;58504;48.770;9.148;2023-07-20T10:48:14;3.83;;;1.25;;
62588;SDS011;58504;48.770;9.148;2023-07-20T10:50:42;1.10;;;1.10;;
62588;SDS011;58504;48.770;9.148;2023-07-20T10:53:11;1.40;;;1.30;;
62588;SDS011;58504;48.770;9.148;2023-07-20T10:55:40;1.50;;;1.25;;
62588;SDS011;58504;48.770;9.148;2023-07-20T10:58:09;1.30;;;1.20;;
62588;SDS011;58504;48.770;9.148;2023-07-20T11:00:36;1.10;;;1.00;;
62588;SDS011;58504;48.770;9.148;2023-07-20T11:03:04;1.83;;;1.40;;
62588;SDS011;58504;48.770;9.148;2023-07-20T11:05:34;1.80;;;1.23;;
62588;SDS011;58504;48.770;9.148;2023-07-20T11:08:04;1.10;;;1.00;;
62588;SDS011;58504;48.770;9.148;2023-07-20T11:10:33;1.25;;;1.15;;
62588;SDS011;58504;48.770;9.148;2023-07-20T11:13:15;1.15;;;1.02;;
62588;SDS011;58504;48.770;9.148;2023-07-20T11:15:45;1.48;;;1.02;;
62588;SDS011;58504;48.770;9.148;2023-07-20T11:18:13;1.10;;;1.00;;
62588;SDS011;58504;48.770;9.148;2023-07-20T11:20:40;0.93;;;0.90;;
62588;SDS011;58504;48.770;9.148;2023-07-20T11:23:07;2.00;;;1.25;;
62588;SDS011;58504;48.770;9.148;2023-07-20T11:25:40;1.48;;;1.05;;
62588;SDS011;58504;48.770;9.148;2023-07-20T11:28:07;1.08;;;1.00;;
62588;SDS011;58504;48.770;9.148;2023-07-20T11:30:35;1.83;;;1.48;;
62588;SDS011;58504;48.770;9.148;2023-07-20T11:33:03;1.90;;;1.10;;
62588;SDS011;58504;48.770;9.148;2023-07-20T11:35:29;1.45;;;1.10;;
62588;SDS011;58504;48.770;9.148;2023-07-20T11:37:56;1.15;;;1.15;;
62588;SDS011;58504;48.770;9.148;2023-07-20T11:40:23;1.02;;;0.95;;
62588;SDS011;58504;48.770;9.148;2023-07-20T11:42:51;0.95;;;0.95;;
62588;SDS011;58504;48.770;9.148;2023-07-20T11:45:19;0.98;;;0.98;;
62588;SDS011;58504;48.770;9.148;2023-07-20T11:47:46;1.60;;;1.00;;
62588;SDS011;58504;48.770;9.148;2023-07-20T11:50:13;1.65;;;1.10;;
62588;SDS011;58504;48.770;9.148;2023-07-20T11:52:41;0.98;;;0.98;;
62588;SDS011;58504;48.770;9.148;2023-07-20T11:55:08;1.40;;;0.93;;
62588;SDS011;58504;48.770;9.148;2023-07-20T11:57:36;0.90;;;0.90;;
62588;SDS011;58504;48.770;9.148;2023-07-20T12:00:05;1.02;;;1.02;;
62588;SDS011;58504;48.770;9.148;2023-07-20T12:02:37;0.77;;;0.77;;
62588;SDS011;58504;48.770;9.148;2023-07-20T12:05:05;2.92;;;0.88;;
62588;SDS011;58504;48.770;9.148;2023-07-20T12:07:35;1.00;;;1.00;;
62588;SDS011;58504;48.770;9.148;2023-07-20T12:10:05;1.00;;;1.00;;
62588;SDS011;58504;48.770;9.148;2023-07-20T12:12:33;0.80;;;0.80;;
62588;SDS011;58504;48.770;9.148;2023-07-20T12:15:14;1.08;;;0.98;;
62588;SDS011;58504;48.770;9.148;2023-07-20T12:17:42;1.02;;;1.00;;
62588;SDS011;58504;48.770;9.148;2023-07-20T12:20:09;0.93;;;0.93;;
62588;SDS011;58504;48.770;9.148;2023-07-20T12:22:38;0.98;;;0.98;;
62588;SDS011;58504;48.770;9.148;2023-07-20T12:25:06;1.63;;;1.10;;
62588;SDS011;58504;48.770;9.148;2023-07-20T12:27:33;2.42;;;1.08;;
62588;SDS011;58504;48.770;9.148;2023-07-20T12:30:01;1.50;;;1.40;;
62588;SDS011;58504;48.770;9.148;2023-07-20T12:32:30;1.02;;;0.95;;
62588;SDS011;58504;48.770;9.148;2023-07-20T12:34:57;1.65;;;0.90;;
62588;SDS011;58504;48.770;9.148;2023-07-20T12:37:25;1.25;;;1.17;;
62588;SDS011;58504;48.770;9.148;2023-07-20T12:39:52;1.08;;;1.08;;
62588;SDS011;58504;48.770;9.148;2023-07-20T12:42:19;1.00;;;1.00;;
62588;SDS011;58504;48.770;9.148;2023-07-20T12:44:48;1.00;;;0.98;;
62588;SDS011;58504;48.770;9.148;2023-07-20T12:47:16;1.20;;;1.20;;
62588;SDS011;58504;48.770;9.148;2023-07-20T12:49:44;1.15;;;1.10;;
62588;SDS011;58504;48.770;9.148;2023-07-20T12:52:11;1.25;;;1.17;;
62588;SDS011;58504;48.770;9.148;2023-07-20T12:54:38;1.80;;;1.17;;
62588;SDS011;58504;48.770;9.148;2023-07-20T12:57:05;0.88;;;0.88;;
62588;SDS011;58504;48.770;9.148;2023-07-20T12:59:32;1.30;;;0.98;;
62588;SDS011;58504;48.770;9.148;2023-07-20T13:01:59;2.47;;;1.20;;
62588;SDS011;58504;48.770;9.148;2023-07-20T13:04:26;1.48;;;1.17;;
62588;SDS011;58504;48.770;9.148;2023-07-20T13:06:55;1.00;;;0.82;;
62588;SDS011;58504;48.770;9.148;2023-07-20T13:09:23;1.13;;;1.00;;
62588;SDS011;58504;48.770;9.148;2023-07-20T13:11:50;1.20;;;0.95;;
62588;SDS011;58504;48.770;9.148;2023-07-20T13:14:17;2.92;;;1.02;;
62588;SDS011;58504;48.770;9.148;2023-07-20T13:16:44;1.60;;;1.08;;
62588;SDS011;58504;48.770;9.148;2023-07-20T13:19:11;1.08;;;1.08;;
62588;SDS011;58504;48.770;9.148;2023-07-20T13:21:37;1.33;;;1.23;;
62588;SDS011;58504;48.770;9.148;2023-07-20T13:24:06;0.80;;;0.80;;
62588;SDS011;58504;48.770;9.148;2023-07-20T13:26:32;0.95;;;0.95;;
62588;SDS011;58504;48.770;9.148;2023-07-20T13:28:59;0.90;;;0.90;;
62588;SDS011;58504;48.770;9.148;2023-07-20T13:31:26;0.88;;;0.88;;
62588;SDS011;58504;48.770;9.148;2023-07-20T13:33:53;1.90;;;1.00;;
62588;SDS011;58504;48.770;9.148;2023-07-20T13:36:20;1.38;;;1.17;;
62588;SDS011;58504;48.770;9.148;2023-07-20T13:38:46;1.23;;;1.13;;
62588;SDS011;58504;48.770;9.148;2023-07-20T13:41:15;1.40;;;1.00;;
62588;SDS011;58504;48.770;9.148;2023-07-20T13:43:42;3.90;;;1.20;;
62588;SDS011;58504;48.770;9.148;2023-07-20T13:46:09;0.80;;;0.80;;
62588;SDS011;58504;48.770;9.148;2023-07-20T13:48:35;0.95;;;0.93;;
62588;SDS011;58504;48.770;9.148;2023-07-20T13:51:02;3.55;;;1.13;;
62588;SDS011;58504;48.770;9.148;2023-07-20T13:53:29;1.02;;;1.02;;
62588;SDS011;58504;48.770;9.148;2023-07-20T13:55:56;0.68;;;0.68;;
62588;SDS011;58504;48.770;9.148;2023-07-20T13:58:25;1.00;;;1.00;;
62588;SDS011;58504;48.770;9.148;2023-07-20T14:00:52;1.33;;;1.10;;
62588;SDS011;58504;48.770;9.148;2023-07-20T14:03:20;1.20;;;1.10;;
62588;SDS011;58504;48.770;9.148;2023-07-20T14:05:46;1.13;;;1.10;;
62588;SDS011;58504;48.770;9.148;2023-07-20T14:08:14;1.10;;;1.10;;
62588;SDS011;58504;48.770;9.148;2023-07-20T14:10:40;0.93;;;0.90;;
62588;SDS011;58504;48.770;9.148;2023-07-20T14:13:07;0.90;;;0.90;;
62588;SDS011;58504;48.770;9.148;2023-07-20T14:15:35;1.65;;;1.08;;
62588;SDS011;58504;48.770;9.148;2023-07-20T14:18:02;0.80;;;0.80;;
62588;SDS011;58504;48.770;9.148;2023-07-20T14:20:29;1.25;;;0.82;;
62588;SDS011;58504;48.770;9.148;2023-07-20T14:22:56;1.08;;;1.08;;
62588;SDS011;58504;48.770;9.148;2023-07-20T14:25:23;1.13;;;0.90;;
62588;SDS011;58504;48.770;9.148;2023-07-20T14:27:49;1.20;;;1.20;;
62588;SDS011;58504;48.770;9.148;2023-07-20T14:30:16;1.15;;;1.10;;
62588;SDS011;58504;48.770;9.148;2023-07-20T14:32:44;1.17;;;1.00;;
62588;SDS011;58504;48.770;9.148;2023-07-20T14:35:11;0.90;;;0.90;;
62588;SDS011;58504;48.770;9.148;2023-07-20T14:37:39;1.00;;;1.00;;
62588;SDS011;58504;48.770;9.148;2023-07-20T14:40:06;0.80;;;0.80;;
62588;SDS011;58504;48.770;9.148;2023-07-20T14:42:33;1.00;;;1.00;;
62588;SDS011;58504;48.770;9.148;2023-07-20T14:45:00;1.15;;;0.95;;
62588;SDS011;58504;48.770;9.148;2023-07-20T14:47:27;1.27;;;1.08;;
62588;SDS011;58504;48.770;9.148;2023-07-20T14:49:58;0.85;;;0.80;;
62588;SDS011;58504;48.770;9.148;2023-07-20T14:52:25;1.73;;;1.20;;
62588;SDS011;58504;48.770;9.148;2023-07-20T14:54:52;2.50;;;1.35;;
62588;SDS011;58504;48.770;9.148;2023-07-20T14:57:18;1.25;;;1.10;;